Time;durP1;ratioP1;P1;durP2;ratioP2;P2;SDS_P1;SDS_P2;PMS_P1;PMS_P2;Temp;Humidity;BMP_temperature;BMP_pressure;BME280_temperature;BME280_humidity;BME280_pressure;Samples;Min_cycle;Max_cycle;Signal;HPM_P1;HPM_P2
2022/12/20 00:01:07;;;;;;;25.90;14.80;;;4.60;99.90;;;;;;5047448;28;20471;-69
2022/12/20 00:03:34;;;;;;;25.80;14.80;;;4.60;99.90;;;;;;5048904;28;20804;-70
2022/12/20 00:06:01;;;;;;;21.70;15.20;;;4.60;99.90;;;;;;5047784;28;20542;-70
2022/12/20 00:08:29;;;;;;;21.97;15.10;;;4.60;99.90;;;;;;5048158;28;20936;-71
2022/12/20 00:10:56;;;;;;;25.37;15.17;;;4.60;99.90;;;;;;5047621;28;20499;-71
2022/12/20 00:13:23;;;;;;;22.90;14.57;;;4.60;99.90;;;;;;5046346;28;20535;-70
2022/12/20 00:15:50;;;;;;;23.87;14.97;;;4.60;99.90;;;;;;5046633;28;20471;-70
2022/12/20 00:18:17;;;;;;;25.83;14.73;;;4.60;99.90;;;;;;5046665;28;20498;-71
2022/12/20 00:20:44;;;;;;;22.87;14.67;;;4.60;99.90;;;;;;5047549;28;20487;-70
2022/12/20 00:23:10;;;;;;;21.47;13.70;;;4.60;99.90;;;;;;5046626;28;20988;-70
2022/12/20 00:25:39;;;;;;;22.00;14.40;;;4.70;99.90;;;;;;5045476;28;20603;-71
2022/12/20 00:28:05;;;;;;;21.60;13.93;;;4.70;99.90;;;;;;5045745;28;20466;-70
2022/12/20 00:30:32;;;;;;;21.37;14.93;;;4.70;99.90;;;;;;5047075;28;20727;-70
2022/12/20 00:32:59;;;;;;;19.93;13.60;;;4.70;99.90;;;;;;5046910;28;20531;-70
2022/12/20 00:35:26;;;;;;;19.73;14.23;;;4.70;99.90;;;;;;5046137;28;20536;-70
2022/12/20 00:37:53;;;;;;;23.60;14.70;;;4.80;99.90;;;;;;5047296;28;20456;-69
2022/12/20 00:40:20;;;;;;;24.07;13.53;;;4.80;99.90;;;;;;5047511;28;20543;-69
2022/12/20 00:42:48;;;;;;;20.03;13.10;;;4.80;99.90;;;;;;5047856;28;20543;-70
2022/12/20 00:45:15;;;;;;;24.57;13.30;;;4.80;99.90;;;;;;5047096;28;20463;-70
2022/12/20 00:47:42;;;;;;;20.50;13.53;;;4.90;99.90;;;;;;5046191;28;20436;-70
2022/12/20 00:50:09;;;;;;;21.40;13.50;;;4.90;99.90;;;;;;5048166;28;20546;-70
2022/12/20 00:52:36;;;;;;;18.33;13.10;;;4.90;99.90;;;;;;5046051;28;20456;-71
2022/12/20 00:55:03;;;;;;;18.60;12.73;;;4.90;99.90;;;;;;5046118;28;20494;-70
2022/12/20 00:57:30;;;;;;;24.53;14.37;;;4.90;99.90;;;;;;5046185;28;20456;-69
2022/12/20 00:59:58;;;;;;;19.70;14.20;;;4.90;99.90;;;;;;5045871;28;20502;-69
2022/12/20 01:02:25;;;;;;;22.67;13.50;;;5.00;99.90;;;;;;5045964;28;20459;-70
2022/12/20 01:04:52;;;;;;;20.47;13.97;;;5.00;99.90;;;;;;5044194;28;20793;-69
2022/12/20 01:07:19;;;;;;;19.63;13.93;;;5.00;99.90;;;;;;5044085;28;20639;-70
2022/12/20 01:09:46;;;;;;;19.00;13.13;;;5.00;99.90;;;;;;5044208;28;20810;-70
2022/12/20 01:12:13;;;;;;;20.40;12.60;;;5.10;99.90;;;;;;5043254;28;20494;-70
2022/12/20 01:14:39;;;;;;;22.10;14.20;;;5.00;99.90;;;;;;5043683;28;20526;-70
2022/12/20 01:17:08;;;;;;;18.50;12.67;;;5.10;99.90;;;;;;5042588;28;20554;-70
2022/12/20 01:19:34;;;;;;;21.07;13.77;;;5.10;99.90;;;;;;5043041;28;20494;-70
2022/12/20 01:22:01;;;;;;;20.77;12.70;;;5.10;99.90;;;;;;5044190;28;20470;-70
2022/12/20 01:24:28;;;;;;;18.33;12.83;;;5.20;99.90;;;;;;5042062;28;20511;-70
2022/12/20 01:26:55;;;;;;;19.80;14.00;;;5.20;99.90;;;;;;5041743;28;20555;-70
2022/12/20 01:29:22;;;;;;;19.10;12.30;;;5.20;99.90;;;;;;5041699;28;20907;-70
2022/12/20 01:31:49;;;;;;;22.50;13.90;;;5.20;99.90;;;;;;5041209;28;20478;-70
2022/12/20 01:34:17;;;;;;;20.50;14.00;;;5.30;99.90;;;;;;5041375;28;20519;-70
2022/12/20 01:36:44;;;;;;;20.10;12.40;;;5.20;99.90;;;;;;5041365;28;20452;-70
2022/12/20 01:39:14;;;;;;;17.30;12.77;;;5.20;99.90;;;;;;5041299;28;20547;-70
2022/12/20 01:41:43;;;;;;;16.80;11.57;;;5.30;99.90;;;;;;5041627;28;20474;-70
2022/12/20 01:44:43;;;;;;;18.20;12.63;;;5.20;99.90;;;;;;5041507;28;20475;-70
2022/12/20 01:47:11;;;;;;;20.90;13.13;;;5.20;99.90;;;;;;5040588;28;20564;-70
2022/12/20 01:49:46;;;;;;;19.53;12.97;;;5.20;99.90;;;;;;5041751;28;20786;-70
2022/12/20 01:52:16;;;;;;;20.80;13.17;;;5.20;99.90;;;;;;5041890;28;20482;-70
2022/12/20 01:54:46;;;;;;;18.47;12.87;;;5.20;99.90;;;;;;5040896;28;20616;-71
2022/12/20 01:57:17;;;;;;;15.77;12.40;;;5.20;99.90;;;;;;5040721;28;20784;-70
2022/12/20 01:59:47;;;;;;;19.17;13.33;;;5.20;99.90;;;;;;5040804;28;20507;-71
2022/12/20 02:02:14;;;;;;;17.03;12.17;;;5.20;99.90;;;;;;5041048;28;20939;-70
2022/12/20 02:04:42;;;;;;;19.00;12.70;;;5.10;99.90;;;;;;5042570;28;20518;-71
2022/12/20 02:07:12;;;;;;;21.43;13.13;;;5.20;99.90;;;;;;5042648;28;20791;-71
2022/12/20 02:09:40;;;;;;;18.50;12.37;;;5.10;99.90;;;;;;5042174;28;20452;-70
2022/12/20 02:12:11;;;;;;;19.10;13.10;;;5.10;99.90;;;;;;5041165;28;20856;-69
2022/12/20 02:14:52;;;;;;;18.23;11.67;;;5.10;99.90;;;;;;5040802;28;20432;-71
2022/12/20 02:17:26;;;;;;;21.67;13.17;;;5.10;99.90;;;;;;5041123;28;20523;-70
2022/12/20 02:20:25;;;;;;;16.90;11.93;;;5.10;99.90;;;;;;5040972;28;20543;-71
2022/12/20 02:23:24;;;;;;;17.13;12.37;;;5.10;99.90;;;;;;5020759;28;20519;-70
2022/12/20 02:26:10;;;;;;;21.90;13.10;;;5.10;99.90;;;;;;5034061;28;20535;-70
2022/12/20 02:28:55;;;;;;;17.80;12.13;;;5.20;99.90;;;;;;5043732;28;20505;-71
2022/12/20 02:31:27;;;;;;;18.93;12.37;;;5.20;99.90;;;;;;5042140;28;20440;-71
2022/12/20 02:33:57;;;;;;;16.50;11.70;;;5.20;99.90;;;;;;5042323;28;20436;-71
2022/12/20 02:36:25;;;;;;;19.20;13.07;;;5.20;99.90;;;;;;5042798;28;20468;-70
2022/12/20 02:38:52;;;;;;;18.60;12.60;;;5.30;99.90;;;;;;5043768;28;20456;-70
2022/12/20 02:41:24;;;;;;;17.93;13.13;;;5.30;99.90;;;;;;5043529;28;20542;-69
2022/12/20 02:46:50;;;;;;;16.13;11.17;;;5.40;99.90;;;;;;5042967;28;20526;-70
2022/12/20 02:49:20;;;;;;;17.77;11.87;;;5.40;99.90;;;;;;5042854;28;20543;-70
2022/12/20 02:51:50;;;;;;;16.07;11.90;;;5.40;99.90;;;;;;5043390;28;20433;-71
2022/12/20 02:54:18;;;;;;;17.60;12.13;;;5.40;99.90;;;;;;5042868;28;20730;-71
2022/12/20 02:56:50;;;;;;;16.70;10.87;;;5.40;99.90;;;;;;5043116;28;20601;-71
2022/12/20 02:59:22;;;;;;;18.33;11.97;;;5.40;99.90;;;;;;5043022;28;20440;-70
2022/12/20 03:01:53;;;;;;;20.93;12.90;;;5.40;99.90;;;;;;5043208;28;20508;-70
2022/12/20 03:04:23;;;;;;;16.73;11.87;;;5.50;99.90;;;;;;5042767;28;20554;-70
2022/12/20 03:06:59;;;;;;;18.03;11.70;;;5.50;99.90;;;;;;5042519;28;20471;-71
2022/12/20 03:09:26;;;;;;;17.20;11.90;;;5.50;99.90;;;;;;5042535;28;20455;-70
2022/12/20 03:11:53;;;;;;;20.17;11.43;;;5.50;99.90;;;;;;5045574;28;20547;-70
2022/12/20 03:14:20;;;;;;;17.27;12.17;;;5.50;99.90;;;;;;5046706;28;20452;-70
2022/12/20 03:16:47;;;;;;;16.77;12.40;;;5.50;99.90;;;;;;5047416;28;20972;-71
2022/12/20 03:19:16;;;;;;;18.70;12.70;;;5.50;99.90;;;;;;5047196;28;20905;-71
2022/12/20 03:21:43;;;;;;;15.10;11.50;;;5.60;99.90;;;;;;5046967;28;20546;-70
2022/12/20 03:24:12;;;;;;;16.00;11.20;;;5.60;99.90;;;;;;5046754;28;20475;-70
2022/12/20 03:26:39;;;;;;;17.80;12.10;;;5.60;99.90;;;;;;5046708;28;20464;-71
2022/12/20 03:29:06;;;;;;;20.73;11.43;;;5.60;99.90;;;;;;5044706;28;20853;-69
2022/12/20 03:31:33;;;;;;;19.10;12.00;;;5.60;99.90;;;;;;5045789;28;20466;-71
2022/12/20 03:34:00;;;;;;;18.50;12.13;;;5.70;99.90;;;;;;5046105;28;20546;-70
2022/12/20 03:36:28;;;;;;;15.77;10.47;;;5.70;99.90;;;;;;5046267;28;20970;-70
2022/12/20 03:38:56;;;;;;;16.97;12.40;;;5.70;99.90;;;;;;5047558;28;20462;-71
2022/12/20 03:41:22;;;;;;;19.30;11.93;;;5.70;99.90;;;;;;5045303;28;20904;-69
2022/12/20 03:43:50;;;;;;;16.20;10.73;;;5.80;99.90;;;;;;5045133;28;20476;-70
2022/12/20 03:46:17;;;;;;;20.63;11.63;;;5.80;99.90;;;;;;5045166;28;21074;-70
2022/12/20 03:48:44;;;;;;;19.10;11.43;;;5.80;99.90;;;;;;5045205;28;20811;-70
2022/12/20 03:51:11;;;;;;;17.00;11.77;;;5.80;99.90;;;;;;5044693;28;20470;-71
2022/12/20 03:53:39;;;;;;;15.57;10.73;;;5.80;99.90;;;;;;5044810;28;20992;-70
2022/12/20 03:56:06;;;;;;;17.30;11.47;;;5.80;99.90;;;;;;5042692;28;20457;-72
2022/12/20 03:58:33;;;;;;;19.20;10.60;;;5.80;99.90;;;;;;5043724;28;20515;-71
2022/12/20 04:01:00;;;;;;;16.10;11.53;;;5.80;99.90;;;;;;5044421;28;20547;-70
2022/12/20 04:03:27;;;;;;;18.30;13.03;;;5.80;99.90;;;;;;5042227;28;20460;-70
2022/12/20 04:05:54;;;;;;;17.90;11.40;;;5.80;99.90;;;;;;5044165;28;20927;-70
2022/12/20 04:08:21;;;;;;;16.60;12.03;;;5.80;99.90;;;;;;5043627;28;20514;-70
2022/12/20 04:13:33;;;;;;;17.60;12.50;;;5.80;99.90;;;;;;5044570;28;20458;-70
2022/12/20 04:16:00;;;;;;;16.33;11.50;;;5.80;99.90;;;;;;5043987;28;20523;-71
2022/12/20 04:18:27;;;;;;;18.13;12.47;;;5.80;99.90;;;;;;5044383;28;20848;-71
2022/12/20 04:20:54;;;;;;;15.77;11.43;;;5.80;99.90;;;;;;5042897;28;21035;-69
2022/12/20 04:23:21;;;;;;;18.70;13.30;;;5.80;99.90;;;;;;5040936;28;20793;-70
2022/12/20 04:25:49;;;;;;;20.10;12.07;;;5.70;99.90;;;;;;5041863;28;20483;-69
2022/12/20 04:28:16;;;;;;;15.90;11.10;;;5.70;99.90;;;;;;5042792;28;20456;-70
2022/12/20 04:30:43;;;;;;;13.63;10.47;;;5.70;99.90;;;;;;5042182;28;20570;-70
2022/12/20 04:33:09;;;;;;;18.83;12.00;;;5.70;99.90;;;;;;5043641;28;20541;-69
2022/12/20 04:35:37;;;;;;;15.70;11.33;;;5.70;99.90;;;;;;5043372;28;20447;-70
2022/12/20 04:38:04;;;;;;;17.43;11.73;;;5.70;99.90;;;;;;5042605;28;20460;-70
2022/12/20 04:40:30;;;;;;;16.23;11.50;;;5.70;99.90;;;;;;5042597;28;20520;-69
2022/12/20 04:42:59;;;;;;;16.53;11.33;;;5.70;99.90;;;;;;5043510;28;20546;-71
2022/12/20 04:45:25;;;;;;;15.93;11.63;;;5.70;99.90;;;;;;5043071;28;20567;-71
2022/12/20 04:47:52;;;;;;;16.40;11.70;;;5.70;99.90;;;;;;5042891;28;20534;-70
2022/12/20 04:50:19;;;;;;;19.40;11.80;;;5.70;99.90;;;;;;5042770;28;20542;-71
2022/12/20 04:55:30;;;;;;;18.03;13.17;;;5.70;99.90;;;;;;5045275;28;20440;-70
2022/12/20 04:57:58;;;;;;;21.03;11.50;;;5.70;99.90;;;;;;5045715;28;20456;-70
2022/12/20 05:00:25;;;;;;;19.60;12.53;;;5.60;99.90;;;;;;5044718;28;20527;-71
2022/12/20 05:02:52;;;;;;;15.93;11.23;;;5.60;99.90;;;;;;5045476;28;20456;-71
2022/12/20 05:05:19;;;;;;;21.60;12.90;;;5.60;99.90;;;;;;5046250;28;20540;-70
2022/12/20 05:07:46;;;;;;;19.13;11.90;;;5.60;99.90;;;;;;5046682;28;20519;-71
2022/12/20 05:10:13;;;;;;;19.83;11.93;;;5.60;99.90;;;;;;5045793;28;20520;-71
2022/12/20 05:12:40;;;;;;;19.10;11.37;;;5.60;99.90;;;;;;5045441;28;20531;-70
2022/12/20 05:15:09;;;;;;;19.47;12.20;;;5.50;99.90;;;;;;5045470;28;20462;-71
2022/12/20 05:17:36;;;;;;;16.37;12.77;;;5.50;99.90;;;;;;5043809;28;20456;-71
2022/12/20 05:20:03;;;;;;;17.30;11.47;;;5.50;99.90;;;;;;5044053;28;20498;-69
2022/12/20 05:28:05;;;;;;;16.07;11.17;;;5.50;99.90;;;;;;5045235;28;20881;-71
2022/12/20 05:30:33;;;;;;;17.20;11.30;;;5.50;99.90;;;;;;5045448;28;20475;-71
2022/12/20 05:32:59;;;;;;;21.27;11.87;;;5.60;99.90;;;;;;5045030;28;20566;-71
2022/12/20 05:35:26;;;;;;;20.20;12.40;;;5.50;99.90;;;;;;5043876;28;20508;-70
2022/12/20 05:37:53;;;;;;;16.47;11.27;;;5.50;99.90;;;;;;5043456;28;20462;-70
2022/12/20 05:40:21;;;;;;;17.80;11.30;;;5.60;99.90;;;;;;5043357;28;20547;-70
2022/12/20 05:42:48;;;;;;;16.93;11.73;;;5.60;99.90;;;;;;5045237;28;20917;-71
2022/12/20 05:45:14;;;;;;;17.17;12.77;;;5.60;99.90;;;;;;5045691;28;20549;-70
2022/12/20 05:47:43;;;;;;;17.13;11.40;;;5.70;99.90;;;;;;5044870;28;20443;-70
2022/12/20 05:50:10;;;;;;;17.80;11.73;;;5.60;99.90;;;;;;5044549;28;20483;-70
2022/12/20 05:52:37;;;;;;;15.43;11.37;;;5.70;99.90;;;;;;5045542;28;20536;-70
2022/12/20 05:55:05;;;;;;;13.97;10.57;;;5.70;99.90;;;;;;5044318;28;20531;-70
2022/12/20 05:57:31;;;;;;;16.40;11.30;;;5.70;99.90;;;;;;5044651;28;20471;-70
2022/12/20 05:59:58;;;;;;;16.70;11.40;;;5.80;99.90;;;;;;5043454;28;20539;-69
2022/12/20 06:02:25;;;;;;;18.80;12.47;;;5.80;99.90;;;;;;5043976;28;20462;-71
2022/12/20 06:04:54;;;;;;;15.73;11.37;;;5.80;99.90;;;;;;5043020;28;20515;-71
2022/12/20 06:07:21;;;;;;;15.00;11.90;;;5.90;99.90;;;;;;5045202;28;20475;-71
2022/12/20 06:09:48;;;;;;;13.77;10.27;;;5.90;99.90;;;;;;5043600;28;20484;-70
2022/12/20 06:12:15;;;;;;;17.53;11.57;;;5.90;99.90;;;;;;5043129;28;20463;-69
2022/12/20 06:14:41;;;;;;;16.77;12.20;;;5.90;99.90;;;;;;5043788;28;20480;-70
2022/12/20 06:17:08;;;;;;;15.90;11.57;;;6.00;99.90;;;;;;5043358;28;20452;-70
2022/12/20 06:19:35;;;;;;;20.97;12.27;;;6.00;99.90;;;;;;5043711;28;20491;-70
2022/12/20 06:22:03;;;;;;;17.70;11.70;;;6.00;99.90;;;;;;5044502;28;20543;-71
2022/12/20 06:24:30;;;;;;;15.80;11.87;;;6.00;99.90;;;;;;5044795;28;20480;-71
2022/12/20 06:26:57;;;;;;;19.57;11.80;;;6.00;99.90;;;;;;5044230;28;20452;-70
2022/12/20 06:29:24;;;;;;;17.20;12.20;;;6.00;99.90;;;;;;5044900;28;20543;-70
2022/12/20 06:31:51;;;;;;;20.33;12.70;;;6.00;99.90;;;;;;5043739;28;20956;-71
2022/12/20 06:34:18;;;;;;;18.30;12.33;;;6.00;99.90;;;;;;5044203;28;20546;-70
2022/12/20 06:36:45;;;;;;;16.40;11.30;;;6.00;99.90;;;;;;5044439;28;20460;-70
2022/12/20 06:39:13;;;;;;;17.33;12.37;;;6.00;99.90;;;;;;5044868;28;20490;-70
2022/12/20 06:41:40;;;;;;;14.53;11.07;;;6.00;99.90;;;;;;5044481;28;20484;-71
2022/12/20 06:44:07;;;;;;;18.47;11.73;;;6.00;99.90;;;;;;5044769;28;20447;-69
2022/12/20 06:46:34;;;;;;;19.37;13.50;;;6.00;99.90;;;;;;5045655;28;20549;-71
2022/12/20 06:49:01;;;;;;;15.07;11.53;;;6.00;99.90;;;;;;5047885;28;20543;-70
2022/12/20 06:51:28;;;;;;;16.83;12.60;;;5.90;99.90;;;;;;5047340;28;20535;-70
2022/12/20 06:53:55;;;;;;;19.87;13.10;;;5.90;99.90;;;;;;5045982;28;20456;-69
2022/12/20 06:56:23;;;;;;;19.83;13.67;;;5.90;99.90;;;;;;5044671;28;20480;-71
2022/12/20 06:58:50;;;;;;;20.63;13.40;;;5.80;99.90;;;;;;5049932;28;20491;-69
2022/12/20 07:01:17;;;;;;;18.33;13.03;;;5.80;99.90;;;;;;5049947;28;20532;-69
2022/12/20 07:03:44;;;;;;;18.10;12.73;;;5.80;99.90;;;;;;5049831;28;20550;-69
2022/12/20 07:06:10;;;;;;;23.10;14.13;;;5.80;99.90;;;;;;5050032;28;20499;-69
2022/12/20 07:08:37;;;;;;;22.50;13.20;;;5.80;99.90;;;;;;5050090;28;20811;-68
2022/12/20 07:11:05;;;;;;;20.83;14.77;;;5.80;99.90;;;;;;5050221;28;20529;-70
2022/12/20 07:13:34;;;;;;;19.30;13.33;;;5.80;99.90;;;;;;5050308;28;20455;-69
2022/12/20 07:16:03;;;;;;;23.20;15.03;;;5.80;99.90;;;;;;5050532;28;20482;-69
2022/12/20 07:18:31;;;;;;;22.47;14.70;;;5.80;99.90;;;;;;5049579;28;20462;-69
2022/12/20 07:21:00;;;;;;;17.83;13.40;;;5.80;99.90;;;;;;5050127;28;20456;-68
2022/12/20 07:23:27;;;;;;;25.43;15.20;;;5.80;99.90;;;;;;5049667;28;20456;-68
2022/12/20 07:25:55;;;;;;;21.40;13.30;;;5.80;99.90;;;;;;5048424;28;20538;-69
2022/12/20 07:28:22;;;;;;;22.30;14.20;;;5.80;99.90;;;;;;5048247;28;20491;-68
2022/12/20 07:30:50;;;;;;;20.87;14.60;;;5.80;99.90;;;;;;5047708;28;20500;-70
2022/12/20 07:33:18;;;;;;;22.10;13.67;;;5.90;99.90;;;;;;5046002;28;20475;-69
2022/12/20 07:35:45;;;;;;;20.43;13.70;;;5.90;99.90;;;;;;5046377;28;20924;-69
2022/12/20 07:38:12;;;;;;;24.63;14.20;;;5.90;99.90;;;;;;5046739;28;20456;-69
2022/12/20 07:40:40;;;;;;;22.10;14.03;;;6.00;99.90;;;;;;5047832;28;20543;-68
2022/12/20 07:43:07;;;;;;;22.00;14.13;;;6.00;99.90;;;;;;5047088;28;20456;-69
2022/12/20 07:45:34;;;;;;;20.40;14.23;;;6.00;99.90;;;;;;5045953;28;20574;-70
2022/12/20 07:48:02;;;;;;;20.70;14.60;;;6.00;99.90;;;;;;5045761;28;20444;-70
2022/12/20 07:50:31;;;;;;;22.40;15.37;;;6.10;99.90;;;;;;5049342;28;20524;-68
2022/12/20 07:52:58;;;;;;;19.27;14.07;;;6.10;99.90;;;;;;5049606;28;20520;-69
2022/12/20 07:55:26;;;;;;;21.73;14.20;;;6.10;99.90;;;;;;5049577;28;20513;-69
2022/12/20 07:57:56;;;;;;;19.33;14.10;;;6.10;99.90;;;;;;5047436;28;20522;-68
2022/12/20 08:00:23;;;;;;;19.47;13.87;;;6.10;99.90;;;;;;5049056;28;20475;-69
2022/12/20 08:02:55;;;;;;;23.83;15.53;;;6.10;99.90;;;;;;5050441;28;20562;-68
2022/12/20 08:05:24;;;;;;;25.93;15.10;;;6.10;99.90;;;;;;5050118;28;20555;-68
2022/12/20 08:07:54;;;;;;;23.03;15.07;;;6.10;99.90;;;;;;5043102;28;20456;-68
2022/12/20 08:10:21;;;;;;;22.63;14.70;;;6.10;99.90;;;;;;5049634;28;20452;-68
2022/12/20 08:12:49;;;;;;;24.93;15.30;;;6.10;99.90;;;;;;5048899;28;20967;-68
2022/12/20 08:15:17;;;;;;;28.83;15.20;;;6.10;99.90;;;;;;5048527;28;20543;-68
2022/12/20 08:17:44;;;;;;;23.43;14.63;;;6.10;99.90;;;;;;5048209;28;20483;-69
2022/12/20 08:20:12;;;;;;;25.50;15.57;;;6.10;99.90;;;;;;5048682;28;20520;-68
2022/12/20 08:22:40;;;;;;;22.60;15.20;;;6.10;99.90;;;;;;5047535;28;20480;-68
2022/12/20 08:25:08;;;;;;;24.83;16.57;;;6.10;99.90;;;;;;5046863;28;20999;-69
2022/12/20 08:27:35;;;;;;;31.13;16.00;;;6.10;99.90;;;;;;5047820;28;20494;-68
2022/12/20 08:30:02;;;;;;;24.27;15.97;;;6.10;99.90;;;;;;5047651;28;20463;-67
2022/12/20 08:32:29;;;;;;;25.37;16.03;;;6.10;99.90;;;;;;5048452;28;20492;-68
2022/12/20 08:34:56;;;;;;;31.03;18.47;;;6.10;99.90;;;;;;5048550;28;20452;-68
2022/12/20 08:37:23;;;;;;;23.00;15.77;;;6.20;99.90;;;;;;5047555;28;20484;-68
2022/12/20 08:39:51;;;;;;;22.70;15.90;;;6.20;99.90;;;;;;5047663;28;20533;-68
2022/12/20 08:42:18;;;;;;;25.17;17.20;;;6.20;99.90;;;;;;5047487;28;20460;-67
2022/12/20 08:44:45;;;;;;;28.53;16.53;;;6.20;99.90;;;;;;5047158;28;20470;-68
2022/12/20 08:47:11;;;;;;;26.57;17.60;;;6.20;99.90;;;;;;5047791;28;20560;-68
2022/12/20 08:49:38;;;;;;;27.20;17.47;;;6.30;99.90;;;;;;5047392;28;20516;-67
2022/12/20 08:52:05;;;;;;;31.83;17.70;;;6.30;99.90;;;;;;5047892;28;20848;-69
2022/12/20 08:54:32;;;;;;;32.23;17.90;;;6.30;99.90;;;;;;5047490;28;20535;-68
2022/12/20 08:57:00;;;;;;;24.67;17.00;;;6.30;99.90;;;;;;5046078;28;20515;-68
2022/12/20 08:59:27;;;;;;;26.30;17.57;;;6.30;99.90;;;;;;5044065;28;20539;-68
2022/12/20 09:01:54;;;;;;;27.30;17.57;;;6.40;99.90;;;;;;5043693;28;20455;-69
2022/12/20 09:04:21;;;;;;;25.27;17.63;;;6.40;99.90;;;;;;5041145;28;20548;-70
2022/12/20 09:06:48;;;;;;;25.30;16.40;;;6.40;99.90;;;;;;5042617;28;20476;-69
2022/12/20 09:09:15;;;;;;;26.03;16.90;;;6.50;99.90;;;;;;5040732;28;20452;-69
2022/12/20 09:11:42;;;;;;;25.37;15.70;;;6.50;99.90;;;;;;5044832;28;20460;-68
2022/12/20 09:14:10;;;;;;;22.33;16.50;;;6.50;99.90;;;;;;5046786;28;20491;-68
2022/12/20 09:16:37;;;;;;;26.13;16.90;;;6.50;99.90;;;;;;5046763;28;20502;-68
2022/12/20 09:19:04;;;;;;;26.37;17.90;;;6.50;99.90;;;;;;5047658;28;20539;-69
2022/12/20 09:21:31;;;;;;;24.93;17.10;;;6.50;99.90;;;;;;5048316;28;20494;-69
2022/12/20 09:23:58;;;;;;;22.50;15.60;;;6.50;99.90;;;;;;5048498;28;20484;-69
2022/12/20 09:26:25;;;;;;;29.50;17.30;;;6.50;99.90;;;;;;5048115;28;20515;-69
2022/12/20 09:28:52;;;;;;;24.90;17.20;;;6.60;99.90;;;;;;5048213;28;20452;-69
2022/12/20 09:31:22;;;;;;;29.80;17.40;;;6.60;99.90;;;;;;5047200;28;20452;-68
2022/12/20 09:33:50;;;;;;;31.93;16.77;;;6.70;99.90;;;;;;5047696;28;20548;-68
2022/12/20 09:36:19;;;;;;;25.93;18.00;;;6.70;99.90;;;;;;5047828;28;20452;-69
2022/12/20 09:38:47;;;;;;;25.77;17.10;;;6.80;99.90;;;;;;5047634;28;20843;-69
2022/12/20 09:41:25;;;;;;;26.80;15.97;;;6.80;99.90;;;;;;5046971;28;20524;-69
2022/12/20 09:43:52;;;;;;;24.97;16.87;;;6.90;99.90;;;;;;5046601;28;20500;-70
2022/12/20 09:46:20;;;;;;;20.33;14.47;;;6.90;99.90;;;;;;5046607;28;20484;-67
2022/12/20 09:48:48;;;;;;;22.67;14.20;;;7.00;99.90;;;;;;5047605;28;20486;-69
2022/12/20 09:51:44;;;;;;;23.13;15.30;;;7.10;99.90;;;;;;5047839;28;20475;-68
2022/12/20 09:54:20;;;;;;;22.23;13.80;;;7.10;99.90;;;;;;5022775;28;20928;-70
2022/12/20 09:56:54;;;;;;;27.67;15.63;;;7.10;99.90;;;;;;5046304;28;20514;-68
2022/12/20 09:59:21;;;;;;;22.40;14.73;;;7.10;99.90;;;;;;5046230;28;20535;-68
2022/12/20 10:01:50;;;;;;;19.60;14.33;;;7.10;99.90;;;;;;5046478;28;20452;-69
2022/12/20 10:04:22;;;;;;;18.00;13.00;;;7.20;99.90;;;;;;5047627;28;20498;-70
2022/12/20 10:07:10;;;;;;;21.90;14.70;;;7.20;99.90;;;;;;5047231;28;20528;-69
2022/12/20 10:09:51;;;;;;;20.43;13.63;;;7.20;99.90;;;;;;5047013;28;20544;-69
2022/12/20 10:12:27;;;;;;;21.03;13.60;;;7.30;99.90;;;;;;5046378;28;20812;-68
2022/12/20 10:15:08;;;;;;;21.03;14.10;;;7.40;99.90;;;;;;5047626;28;20504;-69
2022/12/20 10:17:49;;;;;;;20.67;13.77;;;7.40;99.90;;;;;;5047789;28;20447;-68
2022/12/20 10:20:30;;;;;;;20.93;13.60;;;7.50;99.90;;;;;;5047819;28;20512;-68
2022/12/20 10:23:02;;;;;;;19.13;13.57;;;7.50;99.90;;;;;;5051480;28;20471;-69
2022/12/20 10:25:31;;;;;;;19.83;12.90;;;7.50;99.90;;;;;;5049952;28;20444;-69
2022/12/20 10:28:02;;;;;;;18.93;13.50;;;7.60;99.90;;;;;;5051683;28;20452;-69
2022/12/20 10:30:29;;;;;;;19.70;14.13;;;7.60;99.90;;;;;;5051466;28;20464;-69
2022/12/20 10:32:58;;;;;;;21.80;14.20;;;7.60;99.90;;;;;;5050583;28;20515;-69
2022/12/20 10:35:27;;;;;;;18.93;13.87;;;7.70;99.90;;;;;;5051153;28;20535;-69
2022/12/20 10:38:00;;;;;;;19.00;12.77;;;7.70;99.90;;;;;;5049873;28;20758;-70
2022/12/20 10:40:28;;;;;;;23.00;14.23;;;7.70;99.90;;;;;;5049637;28;20483;-69
2022/12/20 10:42:56;;;;;;;24.87;13.03;;;7.70;99.90;;;;;;5049348;28;20498;-69
2022/12/20 10:45:34;;;;;;;19.57;13.80;;;7.70;99.90;;;;;;5049467;28;20476;-69
2022/12/20 10:48:05;;;;;;;18.17;13.67;;;7.80;99.90;;;;;;5049030;28;20831;-69
2022/12/20 10:50:32;;;;;;;18.50;12.10;;;7.80;99.90;;;;;;5048533;28;20535;-70
2022/12/20 10:53:23;;;;;;;19.43;12.13;;;7.90;99.90;;;;;;5048781;28;20552;-69
2022/12/20 10:55:51;;;;;;;23.50;13.23;;;7.90;99.90;;;;;;5049219;28;20500;-70
2022/12/20 10:58:29;;;;;;;20.63;13.43;;;7.90;99.90;;;;;;5048271;28;20471;-70
2022/12/20 11:01:04;;;;;;;19.33;13.10;;;7.90;99.90;;;;;;5047998;28;20443;-70
2022/12/20 11:03:32;;;;;;;18.43;13.40;;;7.90;99.90;;;;;;5048113;28;20440;-70
2022/12/20 11:06:03;;;;;;;20.80;13.20;;;8.00;99.90;;;;;;5046508;28;20551;-69
2022/12/20 11:08:32;;;;;;;18.63;12.60;;;8.00;99.90;;;;;;5045490;28;20436;-70
2022/12/20 11:11:15;;;;;;;16.73;12.47;;;8.10;99.90;;;;;;5045686;28;20498;-69
2022/12/20 11:13:43;;;;;;;17.80;12.30;;;8.10;99.90;;;;;;5046293;28;20492;-69
2022/12/20 11:16:26;;;;;;;23.20;13.00;;;8.10;99.90;;;;;;5046411;28;20498;-70
2022/12/20 11:19:06;;;;;;;21.97;13.17;;;8.00;99.90;;;;;;5046731;28;20512;-69
2022/12/20 11:21:40;;;;;;;20.80;12.60;;;8.00;99.90;;;;;;5044941;28;20454;-69
2022/12/20 11:24:13;;;;;;;19.93;12.37;;;8.10;99.90;;;;;;5046114;28;20503;-69
2022/12/20 11:27:00;;;;;;;21.23;11.80;;;8.10;99.90;;;;;;5044768;28;20464;-70
2022/12/20 11:29:55;;;;;;;15.80;12.77;;;8.10;99.90;;;;;;5045146;28;20456;-69
2022/12/20 11:32:34;;;;;;;15.80;11.80;;;8.20;99.90;;;;;;5045573;28;20444;-70
2022/12/20 11:35:11;;;;;;;18.23;11.60;;;8.20;99.90;;;;;;5045869;28;20539;-70
2022/12/20 11:37:45;;;;;;;19.27;11.77;;;8.20;99.90;;;;;;5046137;28;20440;-69
2022/12/20 11:40:29;;;;;;;19.20;13.80;;;8.30;99.90;;;;;;5046346;28;20446;-69
2022/12/20 11:43:12;;;;;;;18.60;12.20;;;8.30;99.90;;;;;;5046595;28;20440;-69
2022/12/20 11:45:49;;;;;;;18.23;12.40;;;8.30;99.90;;;;;;5046378;28;20495;-69
2022/12/20 11:48:41;;;;;;;20.10;11.70;;;8.40;99.90;;;;;;5058713;28;20461;-68
2022/12/20 11:51:14;;;;;;;12.73;10.10;;;8.40;99.90;;;;;;5066843;28;20546;-69
2022/12/20 11:53:45;;;;;;;14.00;10.40;;;8.50;99.90;;;;;;5065640;28;20519;-69
2022/12/20 11:56:17;;;;;;;16.93;11.60;;;8.50;99.90;;;;;;5065698;28;20835;-69
2022/12/20 11:58:53;;;;;;;15.73;11.23;;;8.50;99.90;;;;;;5066805;28;20523;-69
2022/12/20 12:01:26;;;;;;;16.30;10.80;;;8.50;99.90;;;;;;5066496;28;20471;-68
2022/12/20 12:04:04;;;;;;;18.50;11.30;;;8.50;99.90;;;;;;5066566;28;20544;-71
2022/12/20 12:06:36;;;;;;;17.23;12.20;;;8.50;99.90;;;;;;5065976;28;20464;-69
2022/12/20 12:09:14;;;;;;;16.43;11.60;;;8.60;99.90;;;;;;5047965;28;20547;-68
2022/12/20 12:11:45;;;;;;;22.80;11.87;;;8.70;99.90;;;;;;5045723;28;20523;-69
2022/12/20 12:14:17;;;;;;;15.70;10.40;;;8.80;99.90;;;;;;5046184;28;20475;-71
2022/12/20 12:16:51;;;;;;;15.33;11.07;;;8.80;99.90;;;;;;5045941;28;20889;-69
2022/12/20 12:19:17;;;;;;;20.33;11.23;;;8.90;99.90;;;;;;5046781;28;20519;-68
2022/12/20 12:21:50;;;;;;;16.43;11.23;;;9.10;99.90;;;;;;5046160;28;20519;-69
2022/12/20 12:24:22;;;;;;;23.53;12.03;;;9.40;99.90;;;;;;5045895;28;20475;-68
2022/12/20 12:26:49;;;;;;;18.40;10.90;;;9.80;99.90;;;;;;5044902;28;20468;-69
2022/12/20 12:29:18;;;;;;;15.27;10.47;;;10.00;99.90;;;;;;5044855;28;20523;-70
2022/12/20 12:31:49;;;;;;;15.73;11.33;;;10.10;99.90;;;;;;5043557;28;20456;-70
2022/12/20 12:34:30;;;;;;;17.77;11.40;;;9.90;99.90;;;;;;5042837;28;20794;-70
2022/12/20 12:37:35;;;;;;;14.47;10.50;;;9.70;99.90;;;;;;5043740;28;20519;-69
2022/12/20 12:40:32;;;;;;;14.33;10.93;;;9.50;99.90;;;;;;5041320;28;20530;-70
2022/12/20 12:43:22;;;;;;;17.67;11.23;;;9.30;99.90;;;;;;5036385;28;20566;-69
2022/12/20 12:45:52;;;;;;;16.33;11.63;;;9.10;99.90;;;;;;5045399;28;20480;-68
2022/12/20 12:48:23;;;;;;;14.50;10.50;;;9.00;99.90;;;;;;5045409;28;20503;-69
2022/12/20 12:50:52;;;;;;;16.90;11.57;;;9.00;99.90;;;;;;5044881;28;20531;-70
2022/12/20 12:53:26;;;;;;;15.00;10.33;;;9.00;99.90;;;;;;5045573;28;20484;-69
2022/12/20 12:55:54;;;;;;;15.83;9.67;;;9.00;99.90;;;;;;5038254;28;20444;-69
2022/12/20 12:58:40;;;;;;;16.23;11.57;;;9.00;99.90;;;;;;5044682;28;20467;-69
2022/12/20 13:01:10;;;;;;;16.93;11.40;;;8.90;99.90;;;;;;5045516;28;20541;-70
2022/12/20 13:03:44;;;;;;;14.73;10.13;;;8.90;99.90;;;;;;5045065;28;20451;-69